Time;durP1;ratioP1;P1;durP2;ratioP2;P2;SDS_P1;SDS_P2;PMS_P1;PMS_P2;Temp;Humidity;BMP_temperature;BMP_pressure;BME280_temperature;BME280_humidity;BME280_pressure;Samples;Min_cycle;Max_cycle;Signal;HPM_P1;HPM_P2
2023/06/21 00:01:35;;;;;;;;;;;19.40;99.90;;;;;;5100852;28;19931;-76
2023/06/21 00:04:00;;;;;;;;;;;19.40;99.90;;;;;;5085091;28;20023;-76
2023/06/21 00:06:28;;;;;;;;;;;19.40;99.90;;;;;;5101892;28;20443;-76
2023/06/21 00:08:55;;;;;;;;;;;19.40;99.90;;;;;;5121062;28;19942;-76
2023/06/21 00:11:20;;;;;;;;;;;19.40;99.90;;;;;;5098465;28;19935;-75
2023/06/21 00:13:46;;;;;;;;;;;19.40;99.90;;;;;;5111022;27;19920;-77
2023/06/21 00:16:14;;;;;;;;;;;19.40;99.90;;;;;;5114608;27;20412;-76
2023/06/21 00:18:39;;;;;;;;;;;19.40;99.90;;;;;;5108561;28;20112;-76
2023/06/21 00:21:05;;;;;;;;;;;19.40;99.90;;;;;;5114510;27;20040;-75
2023/06/21 00:23:30;;;;;;;;;;;19.40;99.90;;;;;;5107983;27;19919;-77
2023/06/21 00:25:56;;;;;;;;;;;19.40;99.90;;;;;;5108783;27;19927;-77
2023/06/21 00:28:22;;;;;;;;;;;19.40;99.90;;;;;;5099816;28;19935;-77
2023/06/21 00:30:47;;;;;;;;;;;19.40;99.90;;;;;;5108367;27;20412;-75
2023/06/21 00:33:13;;;;;;;;;;;19.30;99.90;;;;;;5106561;27;19926;-77
2023/06/21 00:35:38;;;;;;;;;;;19.30;99.90;;;;;;5105041;27;19924;-78
2023/06/21 00:38:05;;;;;;;;;;;19.30;99.90;;;;;;5090991;27;20301;-77
2023/06/21 00:40:31;;;;;;;;;;;19.30;99.90;;;;;;5109768;28;19916;-76
2023/06/21 00:42:57;;;;;;;;;;;19.30;99.90;;;;;;5080377;28;19934;-77
2023/06/21 00:45:22;;;;;;;;;;;19.30;99.90;;;;;;5077222;28;19989;-76
2023/06/21 00:47:49;;;;;;;;;;;19.30;99.90;;;;;;5117324;27;19923;-78
2023/06/21 00:50:15;;;;;;;;;;;19.30;99.90;;;;;;5112383;27;19942;-75
2023/06/21 00:52:43;;;;;;;;;;;19.20;99.90;;;;;;5088333;28;19943;-77
2023/06/21 00:55:08;;;;;;;;;;;19.20;99.90;;;;;;5088911;28;19927;-76
2023/06/21 00:57:34;;;;;;;;;;;19.20;99.90;;;;;;5088639;28;20044;-77
2023/06/21 01:00:00;;;;;;;;;;;19.30;99.90;;;;;;5108406;27;19971;-76
2023/06/21 01:02:26;;;;;;;;;;;19.20;99.90;;;;;;5114584;27;19924;-76
2023/06/21 01:04:52;;;;;;;;;;;19.20;99.90;;;;;;5111509;28;19935;-77
2023/06/21 01:07:17;;;;;;;;;;;19.20;99.90;;;;;;5099301;27;19920;-77
2023/06/21 01:09:58;;;;;;;;;;;19.20;99.90;;;;;;5102853;28;19920;-75
2023/06/21 01:12:29;;;;;;;;;;;19.20;99.90;;;;;;5110443;27;19976;-78
2023/06/21 01:15:02;;;;;;;;;;;19.20;99.90;;;;;;5108392;27;19977;-77
2023/06/21 01:17:29;;;;;;;;;;;19.20;99.90;;;;;;5101967;27;19919;-77
2023/06/21 01:19:55;;;;;;;;;;;19.20;99.90;;;;;;5124190;27;20011;-76
2023/06/21 01:22:40;;;;;;;;;;;19.20;99.90;;;;;;5122580;27;19919;-75
2023/06/21 01:25:09;;;;;;;;;;;19.20;99.90;;;;;;5112572;27;20259;-77
2023/06/21 01:27:52;;;;;;;;;;;19.20;99.90;;;;;;5110758;27;19956;-77
2023/06/21 01:30:18;;;;;;;;;;;19.20;99.90;;;;;;5100564;28;19920;-77
2023/06/21 01:32:44;;;;;;;;;;;19.30;99.90;;;;;;5104966;28;20292;-77
2023/06/21 01:35:11;;;;;;;;;;;19.20;99.90;;;;;;5114397;27;19923;-77
2023/06/21 01:37:36;;;;;;;;;;;19.20;99.90;;;;;;5106603;28;20002;-77
2023/06/21 01:40:09;;;;;;;;;;;19.20;99.90;;;;;;5107066;27;19933;-78
2023/06/21 01:42:35;;;;;;;;;;;19.20;99.90;;;;;;5070589;27;19928;-77
2023/06/21 01:45:00;;;;;;;;;;;19.20;99.90;;;;;;5107028;28;20014;-77
2023/06/21 01:47:26;;;;;;;;;;;19.20;99.90;;;;;;5082419;28;19971;-77
2023/06/21 01:49:52;;;;;;;;;;;19.20;99.90;;;;;;5088755;28;20365;-77
2023/06/21 01:52:18;;;;;;;;;;;19.20;99.90;;;;;;5100122;27;20430;-77
2023/06/21 01:54:43;;;;;;;;;;;19.20;99.90;;;;;;5070906;28;19929;-77
2023/06/21 01:57:10;;;;;;;;;;;19.20;99.90;;;;;;5069982;28;19927;-77
2023/06/21 01:59:36;;;;;;;;;;;19.20;99.90;;;;;;5061057;28;19921;-76
2023/06/21 02:02:03;;;;;;;;;;;19.10;99.90;;;;;;5063019;28;20660;-76
2023/06/21 02:04:29;;;;;;;;;;;19.20;99.90;;;;;;5063167;28;19967;-76
2023/06/21 02:06:55;;;;;;;;;;;19.10;99.90;;;;;;5064704;28;20447;-75
2023/06/21 02:09:21;;;;;;;;;;;19.20;99.90;;;;;;5056877;28;19928;-76
2023/06/21 02:11:49;;;;;;;;;;;19.20;99.90;;;;;;5062991;28;20255;-76
2023/06/21 02:14:15;;;;;;;;;;;19.10;99.90;;;;;;5073221;28;19943;-76
2023/06/21 02:16:41;;;;;;;;;;;19.10;99.90;;;;;;5071062;28;20358;-76
2023/06/21 02:19:07;;;;;;;;;;;19.10;99.90;;;;;;5061323;28;19928;-77
2023/06/21 02:21:32;;;;;;;;;;;19.10;99.90;;;;;;5061679;28;19920;-76
2023/06/21 02:23:58;;;;;;;;;;;19.10;99.90;;;;;;5063515;28;20432;-76
2023/06/21 02:26:23;;;;;;;;;;;19.10;99.90;;;;;;5064425;28;20351;-76
2023/06/21 02:28:49;;;;;;;;;;;19.10;99.90;;;;;;5064357;28;19920;-76
2023/06/21 02:31:14;;;;;;;;;;;19.10;99.90;;;;;;5066595;28;19927;-76
2023/06/21 02:33:48;;;;;;;;;;;19.10;99.90;;;;;;5055497;28;20371;-75
2023/06/21 02:36:14;;;;;;;;;;;19.10;99.90;;;;;;5063947;28;19994;-78
2023/06/21 02:38:40;;;;;;;;;;;19.00;99.90;;;;;;5058519;28;20393;-76
2023/06/21 02:41:07;;;;;;;;;;;19.10;99.90;;;;;;5060801;28;20382;-75
2023/06/21 02:43:33;;;;;;;;;;;19.10;99.90;;;;;;5061981;28;20023;-77
2023/06/21 02:46:00;;;;;;;;;;;19.00;99.90;;;;;;5066427;28;20376;-76
2023/06/21 02:48:26;;;;;;;;;;;19.00;99.90;;;;;;5059079;28;19995;-75
2023/06/21 02:50:51;;;;;;;;;;;19.00;99.90;;;;;;5063999;28;20002;-74
2023/06/21 02:53:17;;;;;;;;;;;19.00;99.90;;;;;;5073004;28;19958;-76
2023/06/21 02:55:42;;;;;;;;;;;18.90;99.90;;;;;;5086323;28;19993;-76
2023/06/21 02:58:08;;;;;;;;;;;18.90;99.90;;;;;;5107551;28;19935;-76
2023/06/21 03:00:33;;;;;;;;;;;18.90;99.90;;;;;;5105095;28;19920;-75
2023/06/21 03:03:00;;;;;;;;;;;18.90;99.90;;;;;;5109371;27;20096;-75
2023/06/21 03:05:26;;;;;;;;;;;18.80;99.90;;;;;;5112895;27;20334;-76
2023/06/21 03:07:52;;;;;;;;;;;18.80;99.90;;;;;;5090697;28;19930;-77
2023/06/21 03:10:19;;;;;;;;;;;18.80;99.90;;;;;;5107980;27;20006;-76
2023/06/21 03:12:45;;;;;;;;;;;18.80;99.90;;;;;;5103635;27;19935;-75
2023/06/21 03:15:11;;;;;;;;;;;18.80;99.90;;;;;;5082941;28;19920;-75
2023/06/21 03:17:37;;;;;;;;;;;18.70;99.90;;;;;;5104761;28;19932;-76
2023/06/21 03:20:11;;;;;;;;;;;18.70;99.90;;;;;;5089551;28;19924;-77
2023/06/21 03:22:37;;;;;;;;;;;18.70;99.90;;;;;;5104269;28;19927;-77
2023/06/21 03:25:03;;;;;;;;;;;18.70;99.90;;;;;;5100148;28;19920;-76
2023/06/21 03:27:28;;;;;;;;;;;18.70;99.90;;;;;;5107063;27;19942;-75
2023/06/21 03:29:57;;;;;;;;;;;18.70;99.90;;;;;;5090243;28;19920;-75
2023/06/21 03:32:23;;;;;;;;;;;18.80;99.90;;;;;;5101971;27;19949;-77
2023/06/21 03:34:48;;;;;;;;;;;18.80;99.90;;;;;;5111798;28;19973;-76
2023/06/21 03:37:14;;;;;;;;;;;18.80;99.90;;;;;;5093035;28;19972;-76
2023/06/21 03:39:39;;;;;;;;;;;18.70;99.90;;;;;;5107891;28;19955;-77
2023/06/21 03:42:05;;;;;;;;;;;18.70;99.90;;;;;;5088615;28;19931;-77
2023/06/21 03:44:30;;;;;;;;;;;18.70;99.90;;;;;;5102374;28;19945;-76
2023/06/21 03:46:58;;;;;;;;;;;18.70;99.90;;;;;;5108805;28;19970;-77
2023/06/21 03:49:23;;;;;;;;;;;18.70;99.90;;;;;;5085054;28;19920;-77
2023/06/21 03:51:49;;;;;;;;;;;18.70;99.90;;;;;;5110331;27;20035;-77
2023/06/21 03:54:14;;;;;;;;;;;18.70;99.90;;;;;;5103042;27;19920;-76
2023/06/21 03:56:40;;;;;;;;;;;18.70;99.90;;;;;;5105886;28;19919;-77
2023/06/21 03:59:06;;;;;;;;;;;18.70;99.90;;;;;;5084144;28;19920;-78
2023/06/21 04:01:31;;;;;;;;;;;18.70;99.90;;;;;;5110062;27;20381;-77
2023/06/21 04:03:57;;;;;;;;;;;18.70;99.90;;;;;;5106557;28;20317;-77
2023/06/21 04:06:23;;;;;;;;;;;18.70;99.90;;;;;;5102981;28;19934;-77
2023/06/21 04:08:48;;;;;;;;;;;18.70;99.90;;;;;;5110831;27;20423;-76
2023/06/21 04:11:14;;;;;;;;;;;18.70;99.90;;;;;;5105617;27;19945;-76
2023/06/21 04:13:39;;;;;;;;;;;18.70;99.90;;;;;;5104563;27;19950;-75
2023/06/21 04:16:05;;;;;;;;;;;18.70;99.90;;;;;;5098493;28;19920;-76
2023/06/21 04:18:31;;;;;;;;;;;18.70;99.90;;;;;;5093436;28;20393;-77
2023/06/21 04:20:56;;;;;;;;;;;18.70;99.90;;;;;;5103037;28;19920;-77
2023/06/21 04:23:22;;;;;;;;;;;18.70;99.90;;;;;;5115165;28;19997;-76
2023/06/21 04:25:47;;;;;;;;;;;18.70;99.90;;;;;;5109071;27;19963;-76
2023/06/21 04:28:13;;;;;;;;;;;18.70;99.90;;;;;;5108883;27;20380;-77
2023/06/21 04:30:38;;;;;;;;;;;18.70;99.90;;;;;;5110030;28;19919;-76
2023/06/21 04:33:04;;;;;;;;;;;18.70;99.90;;;;;;5109299;28;19970;-77
2023/06/21 04:35:32;;;;;;;;;;;18.70;99.90;;;;;;5108145;28;19919;-76
2023/06/21 04:38:00;;;;;;;;;;;18.80;99.90;;;;;;5109131;28;19924;-77
2023/06/21 04:40:25;;;;;;;;;;;18.80;99.90;;;;;;5114734;28;19915;-77
2023/06/21 04:42:54;;;;;;;;;;;18.80;99.90;;;;;;5107243;28;20281;-76
2023/06/21 04:45:20;;;;;;;;;;;18.80;99.90;;;;;;5106418;27;19987;-76
2023/06/21 04:47:46;;;;;;;;;;;18.90;99.90;;;;;;5120278;27;19920;-76
2023/06/21 04:50:12;;;;;;;;;;;18.90;99.90;;;;;;5112619;27;19923;-76
2023/06/21 04:52:37;;;;;;;;;;;18.90;99.90;;;;;;5098469;28;19920;-81
2023/06/21 04:55:06;;;;;;;;;;;18.90;99.90;;;;;;5100783;28;20408;-76
2023/06/21 04:57:32;;;;;;;;;;;19.00;99.90;;;;;;5109112;27;19956;-76
2023/06/21 04:59:58;;;;;;;;;;;19.00;99.90;;;;;;5115509;27;20008;-75
2023/06/21 05:02:24;;;;;;;;;;;19.00;99.90;;;;;;5110942;27;19919;-77
2023/06/21 05:04:49;;;;;;;;;;;19.00;99.90;;;;;;5086693;28;19919;-75
2023/06/21 05:07:15;;;;;;;;;;;19.00;99.90;;;;;;5105720;28;19993;-76
2023/06/21 05:09:41;;;;;;;;;;;19.00;99.90;;;;;;5114651;27;20307;-76
2023/06/21 05:12:10;;;;;;;;;;;19.10;99.90;;;;;;5102915;27;19977;-75
2023/06/21 05:14:38;;;;;;;;;;;19.10;99.90;;;;;;5116809;27;19931;-73
2023/06/21 05:17:04;;;;;;;;;;;19.10;99.90;;;;;;5108440;27;19971;-74
2023/06/21 05:19:31;;;;;;;;;;;19.10;99.90;;;;;;5109848;27;19967;-75
2023/06/21 05:21:56;;;;;;;;;;;19.20;99.90;;;;;;5112354;27;19919;-78
2023/06/21 05:24:22;;;;;;;;;;;19.20;99.90;;;;;;5113153;27;20051;-76
2023/06/21 05:26:47;;;;;;;;;;;19.30;99.90;;;;;;5100120;27;19938;-75
2023/06/21 05:29:13;;;;;;;;;;;19.30;99.90;;;;;;5104444;27;19927;-75
2023/06/21 05:31:45;;;;;;;;;;;19.30;99.90;;;;;;5090647;28;19919;-74
2023/06/21 05:34:11;;;;;;;;;;;19.30;99.90;;;;;;5089234;28;19920;-73
2023/06/21 05:36:36;;;;;;;;;;;19.30;99.90;;;;;;5112725;28;20033;-75
2023/06/21 05:39:05;;;;;;;;;;;19.40;99.90;;;;;;5111904;27;19926;-76
2023/06/21 05:41:30;;;;;;;;;;;19.40;99.90;;;;;;5118083;27;19999;-76
2023/06/21 05:43:56;;;;;;;;;;;19.40;99.90;;;;;;5109304;27;20007;-74
2023/06/21 05:46:21;;;;;;;;;;;19.40;99.90;;;;;;5107110;27;19924;-75
2023/06/21 05:48:47;;;;;;;;;;;19.50;99.90;;;;;;5110274;28;19920;-75
2023/06/21 05:51:13;;;;;;;;;;;19.50;99.90;;;;;;5097853;28;20358;-75
2023/06/21 05:53:38;;;;;;;;;;;19.50;99.90;;;;;;5102310;27;19920;-74
2023/06/21 05:56:04;;;;;;;;;;;19.60;99.90;;;;;;5102860;27;19920;-75
2023/06/21 05:58:30;;;;;;;;;;;19.70;99.90;;;;;;5105020;28;19920;-76
2023/06/21 06:00:56;;;;;;;;;;;19.80;99.90;;;;;;5089784;28;19919;-72
2023/06/21 06:03:21;;;;;;;;;;;19.80;99.90;;;;;;5102500;27;20022;-74
2023/06/21 06:05:47;;;;;;;;;;;19.80;99.90;;;;;;5101943;28;20318;-73
2023/06/21 06:08:13;;;;;;;;;;;19.80;99.90;;;;;;5093020;28;19928;-76
2023/06/21 06:10:38;;;;;;;;;;;19.70;99.90;;;;;;5081993;28;20344;-73
2023/06/21 06:13:04;;;;;;;;;;;19.80;99.90;;;;;;5106208;27;20022;-74
2023/06/21 06:15:29;;;;;;;;;;;19.90;99.90;;;;;;5100824;27;19919;-75
2023/06/21 06:17:55;;;;;;;;;;;19.90;99.90;;;;;;5108835;27;19926;-75
2023/06/21 06:20:20;;;;;;;;;;;20.00;99.90;;;;;;5104207;27;19957;-75
2023/06/21 06:22:47;;;;;;;;;;;20.10;99.90;;;;;;5100369;27;19920;-74
2023/06/21 06:25:13;;;;;;;;;;;20.10;99.90;;;;;;5099872;28;19928;-74
2023/06/21 06:27:38;;;;;;;;;;;20.20;99.90;;;;;;5104642;28;19920;-75
2023/06/21 06:30:04;;;;;;;;;;;20.20;99.90;;;;;;5107562;27;19920;-75
2023/06/21 06:32:30;;;;;;;;;;;20.30;99.90;;;;;;5098141;27;19924;-74
2023/06/21 06:34:55;;;;;;;;;;;20.40;99.90;;;;;;5109194;28;19965;-74
2023/06/21 06:37:24;;;;;;;;;;;20.40;99.90;;;;;;5100017;28;19953;-75
2023/06/21 06:39:53;;;;;;;;;;;20.50;99.90;;;;;;5081478;28;19972;-74
2023/06/21 06:42:19;;;;;;;;;;;20.60;99.90;;;;;;5109300;27;20348;-74
2023/06/21 06:44:45;;;;;;;;;;;20.70;99.90;;;;;;5103873;27;19927;-75
2023/06/21 06:47:11;;;;;;;;;;;20.70;99.90;;;;;;5098593;27;19920;-75
2023/06/21 06:49:36;;;;;;;;;;;20.70;99.90;;;;;;5075358;28;20096;-75
2023/06/21 06:52:05;;;;;;;;;;;20.80;99.90;;;;;;5104305;28;19926;-73
2023/06/21 06:54:31;;;;;;;;;;;20.90;99.90;;;;;;5087036;28;19970;-76
2023/06/21 06:56:56;;;;;;;;;;;21.10;99.90;;;;;;5087109;28;19954;-76
2023/06/21 06:59:22;;;;;;;;;;;21.10;99.90;;;;;;5109909;28;20332;-75
2023/06/21 07:01:48;;;;;;;;;;;21.20;99.90;;;;;;5089832;28;20357;-76
2023/06/21 07:04:13;;;;;;;;;;;21.30;99.90;;;;;;5110638;28;19926;-76
2023/06/21 07:06:39;;;;;;;;;;;21.40;99.90;;;;;;5096971;28;19920;-76
2023/06/21 07:09:06;;;;;;;;;;;21.40;99.90;;;;;;5108451;27;19920;-76
2023/06/21 07:11:32;;;;;;;;;;;21.60;99.90;;;;;;5113487;28;19923;-76
2023/06/21 07:13:58;;;;;;;;;;;21.50;99.90;;;;;;5110661;28;20377;-77
2023/06/21 07:16:24;;;;;;;;;;;21.40;99.90;;;;;;5079476;28;19919;-77
2023/06/21 07:18:49;;;;;;;;;;;21.50;99.90;;;;;;5081225;28;19920;-76
2023/06/21 07:21:17;;;;;;;;;;;21.60;99.90;;;;;;5123884;27;19941;-76
2023/06/21 07:23:43;;;;;;;;;;;21.70;99.90;;;;;;5091585;28;19924;-76
2023/06/21 07:26:09;;;;;;;;;;;21.70;99.90;;;;;;5094095;28;19926;-77
2023/06/21 07:28:34;;;;;;;;;;;21.50;99.90;;;;;;5069574;28;19920;-76
2023/06/21 07:31:00;;;;;;;;;;;21.50;99.90;;;;;;5067681;28;19954;-78
2023/06/21 07:33:26;;;;;;;;;;;21.60;99.90;;;;;;5102962;28;20478;-77
2023/06/21 07:35:51;;;;;;;;;;;21.70;99.90;;;;;;5069696;28;19979;-78
2023/06/21 07:38:17;;;;;;;;;;;21.90;99.90;;;;;;5094068;28;19928;-78
2023/06/21 07:40:43;;;;;;;;;;;22.00;99.90;;;;;;5110443;28;19920;-78
2023/06/21 07:43:11;;;;;;;;;;;22.10;99.90;;;;;;5083154;28;19976;-77
2023/06/21 07:45:37;;;;;;;;;;;22.10;99.90;;;;;;5105870;28;19923;-78
2023/06/21 07:48:02;;;;;;;;;;;21.90;99.90;;;;;;5099401;28;19935;-76
2023/06/21 07:50:28;;;;;;;;;;;22.00;99.90;;;;;;5082390;28;20330;-77
2023/06/21 07:52:56;;;;;;;;;;;22.10;99.90;;;;;;5062307;28;19927;-77
2023/06/21 07:55:22;;;;;;;;;;;22.30;99.90;;;;;;5103784;28;19927;-78
2023/06/21 07:57:48;;;;;;;;;;;22.30;99.90;;;;;;5107916;28;20053;-78
2023/06/21 08:00:13;;;;;;;;;;;22.40;99.90;;;;;;5108378;28;19996;-77
2023/06/21 08:02:40;;;;;;;;;;;22.50;99.90;;;;;;5098632;28;19926;-77
2023/06/21 08:05:06;;;;;;;;;;;22.60;99.90;;;;;;5101192;28;20371;-76
2023/06/21 08:07:32;;;;;;;;;;;22.80;99.90;;;;;;5093108;28;20011;-76
2023/06/21 08:09:57;;;;;;;;;;;22.70;99.90;;;;;;5103732;28;19920;-78
2023/06/21 08:12:23;;;;;;;;;;;22.70;99.90;;;;;;5092832;28;19920;-76
2023/06/21 08:14:49;;;;;;;;;;;22.60;99.90;;;;;;5095398;28;19961;-77
2023/06/21 08:17:14;;;;;;;;;;;22.70;99.90;;;;;;5122873;27;19926;-76
2023/06/21 08:19:40;;;;;;;;;;;22.80;99.90;;;;;;5088893;28;19964;-75
2023/06/21 08:22:05;;;;;;;;;;;22.90;99.90;;;;;;5098681;28;19923;-78
2023/06/21 08:24:32;;;;;;;;;;;22.90;99.90;;;;;;5097980;28;19920;-77
2023/06/21 08:26:57;;;;;;;;;;;22.80;99.90;;;;;;5111070;28;20385;-76
2023/06/21 08:29:23;;;;;;;;;;;22.90;99.90;;;;;;5104084;28;20011;-76
2023/06/21 08:31:48;;;;;;;;;;;23.10;99.90;;;;;;5109462;28;19919;-75
2023/06/21 08:34:14;;;;;;;;;;;23.10;99.90;;;;;;5112191;28;19920;-76
2023/06/21 08:36:39;;;;;;;;;;;23.20;99.90;;;;;;5093571;28;19920;-77
2023/06/21 08:39:05;;;;;;;;;;;23.20;99.90;;;;;;5115414;28;19930;-77
2023/06/21 08:41:31;;;;;;;;;;;23.30;99.90;;;;;;5089001;28;19920;-77
2023/06/21 08:43:56;;;;;;;;;;;23.30;99.90;;;;;;5127374;27;19926;-77
2023/06/21 08:46:25;;;;;;;;;;;23.40;99.90;;;;;;5094034;28;19966;-75
2023/06/21 08:48:51;;;;;;;;;;;23.60;99.90;;;;;;5088982;27;20410;-77
2023/06/21 08:51:19;;;;;;;;;;;23.80;99.90;;;;;;5090758;28;19993;-77
2023/06/21 08:53:50;;;;;;;;;;;23.70;99.90;;;;;;5113003;27;19931;-76
2023/06/21 08:56:22;;;;;;;;;;;23.60;99.90;;;;;;5103376;28;20019;-76
2023/06/21 08:58:57;;;;;;;;;;;23.50;99.90;;;;;;5087518;27;19924;-77
2023/06/21 09:01:24;;;;;;;;;;;23.60;99.90;;;;;;5088224;28;19928;-77
2023/06/21 09:04:00;;;;;;;;;;;23.80;99.90;;;;;;5111659;28;19920;-76
2023/06/21 09:06:26;;;;;;;;;;;24.00;99.90;;;;;;5109971;28;19945;-77
2023/06/21 09:08:53;;;;;;;;;;;24.10;99.90;;;;;;5075156;28;19927;-76
2023/06/21 09:11:20;;;;;;;;;;;24.20;99.90;;;;;;5083988;28;19931;-76
2023/06/21 09:13:47;;;;;;;;;;;24.20;99.90;;;;;;5110313;27;20027;-76
2023/06/21 09:16:12;;;;;;;;;;;24.00;99.90;;;;;;5100172;28;19931;-77
2023/06/21 09:18:39;;;;;;;;;;;23.90;99.90;;;;;;5082871;28;19923;-76
2023/06/21 09:21:06;;;;;;;;;;;23.90;99.90;;;;;;5111027;27;19920;-77
2023/06/21 09:23:31;;;;;;;;;;;23.80;99.90;;;;;;5097687;28;20027;-79
2023/06/21 09:25:57;;;;;;;;;;;23.90;99.90;;;;;;5095775;28;20147;-77
2023/06/21 09:28:23;;;;;;;;;;;24.00;99.90;;;;;;5121435;27;19919;-76
2023/06/21 09:30:48;;;;;;;;;;;24.20;99.90;;;;;;5068170;28;20342;-76
2023/06/21 09:33:14;;;;;;;;;;;24.30;99.90;;;;;;5084261;28;20282;-76
2023/06/21 09:35:40;;;;;;;;;;;24.40;99.90;;;;;;5089817;28;19920;-76
2023/06/21 09:38:26;;;;;;;;;;;24.50;99.90;;;;;;5070213;28;19919;-77
2023/06/21 09:40:52;;;;;;;;;;;24.60;99.90;;;;;;5098796;28;22282;-76
2023/06/21 09:43:19;;;;;;;;;;;24.80;99.90;;;;;;5114960;27;19924;-77
2023/06/21 09:45:57;;;;;;;;;;;24.90;99.90;;;;;;5102149;28;19924;-77
2023/06/21 09:48:23;;;;;;;;;;;25.00;99.90;;;;;;5119715;27;20395;-76
2023/06/21 09:50:48;;;;;;;;;;;25.10;99.90;;;;;;5079107;28;19919;-76
2023/06/21 09:53:20;;;;;;;;;;;25.30;99.90;;;;;;5085223;28;20285;-76
2023/06/21 09:55:46;;;;;;;;;;;25.40;99.90;;;;;;5090212;28;19920;-77
2023/06/21 09:58:14;;;;;;;;;;;25.40;99.90;;;;;;5112286;27;20019;-77
2023/06/21 10:00:40;;;;;;;;;;;25.50;99.90;;;;;;5085444;27;19920;-76
2023/06/21 10:03:05;;;;;;;;;;;25.70;99.90;;;;;;5123495;27;19920;-76
2023/06/21 10:05:31;;;;;;;;;;;25.80;99.90;;;;;;5112034;27;19934;-76
2023/06/21 10:07:57;;;;;;;;;;;25.80;99.90;;;;;;5094018;28;20360;-77
2023/06/21 10:10:22;;;;;;;;;;;25.80;99.90;;;;;;5117779;27;19927;-77
2023/06/21 10:12:51;;;;;;;;;;;25.90;99.90;;;;;;5097415;28;19920;-78
2023/06/21 10:15:18;;;;;;;;;;;25.80;99.90;;;;;;5096975;28;19997;-77
2023/06/21 10:17:45;;;;;;;;;;;25.90;99.90;;;;;;5106412;27;19980;-76
2023/06/21 10:20:11;;;;;;;;;;;26.00;99.90;;;;;;5116546;28;19920;-75
2023/06/21 10:22:37;;;;;;;;;;;26.10;99.90;;;;;;5103945;27;19930;-75
2023/06/21 10:25:03;;;;;;;;;;;26.20;99.90;;;;;;5076191;28;20041;-78
2023/06/21 10:27:30;;;;;;;;;;;26.10;99.90;;;;;;5091044;27;20288;-76
2023/06/21 10:29:57;;;;;;;;;;;26.10;99.60;;;;;;5113236;28;19931;-77
2023/06/21 10:32:27;;;;;;;;;;;26.00;99.60;;;;;;5131503;27;19949;-77
2023/06/21 10:34:57;;;;;;;;;;;25.90;99.90;;;;;;5112818;28;19939;-76
2023/06/21 10:37:27;;;;;;;;;;;26.10;99.90;;;;;;5097459;28;19931;-77
2023/06/21 10:39:54;;;;;;;;;;;26.30;99.90;;;;;;5089966;28;19924;-77
2023/06/21 10:42:21;;;;;;;;;;;26.30;99.90;;;;;;5075388;28;19920;-77
2023/06/21 10:44:48;;;;;;;;;;;26.30;99.60;;;;;;5106258;28;19920;-76
2023/06/21 10:47:14;;;;;;;;;;;26.50;99.90;;;;;;5114816;27;20002;-77
2023/06/21 10:49:39;;;;;;;;;;;26.60;99.50;;;;;;5090789;28;20364;-77
2023/06/21 10:52:05;;;;;;;;;;;26.80;99.90;;;;;;5091629;28;20297;-76
2023/06/21 10:54:31;;;;;;;;;;;26.80;99.80;;;;;;5087992;28;20008;-76
2023/06/21 10:56:57;;;;;;;;;;;26.90;99.70;;;;;;5105432;28;19927;-78
2023/06/21 10:59:24;;;;;;;;;;;27.00;99.90;;;;;;5096403;28;20384;-78
2023/06/21 11:01:49;;;;;;;;;;;27.20;98.50;;;;;;5113088;28;19955;-77
2023/06/21 11:04:15;;;;;;;;;;;27.30;99.70;;;;;;5117691;27;19923;-77
2023/06/21 11:06:41;;;;;;;;;;;27.10;97.00;;;;;;5107215;27;20032;-76
2023/06/21 11:09:09;;;;;;;;;;;27.10;97.90;;;;;;5104712;27;19927;-76
2023/06/21 11:11:37;;;;;;;;;;;27.20;98.20;;;;;;5100352;28;19920;-77
2023/06/21 11:14:03;;;;;;;;;;;27.50;98.10;;;;;;5088080;28;19924;-76
2023/06/21 11:16:40;;;;;;;;;;;27.70;97.70;;;;;;5111827;28;19942;-77
2023/06/21 11:19:07;;;;;;;;;;;28.00;99.00;;;;;;5093179;28;19919;-78
2023/06/21 11:21:40;;;;;;;;;;;27.90;95.80;;;;;;5071943;28;19924;-77
2023/06/21 11:24:08;;;;;;;;;;;27.80;96.80;;;;;;5108380;28;19926;-78
2023/06/21 11:26:53;;;;;;;;;;;27.60;95.50;;;;;;5084204;28;19904;-77
2023/06/21 11:29:19;;;;;;;;;;;27.30;95.90;;;;;;5115831;27;19926;-79
2023/06/21 11:31:45;;;;;;;;;;;27.50;97.00;;;;;;5108653;28;19927;-77
2023/06/21 11:34:23;;;;;;;;;;;27.70;95.70;;;;;;5120308;27;20014;-78
2023/06/21 11:36:49;;;;;;;;;;;28.10;96.20;;;;;;5106857;28;19919;-79
2023/06/21 11:39:14;;;;;;;;;;;28.50;95.70;;;;;;5101495;28;20008;-78
2023/06/21 11:41:47;;;;;;;;;;;28.80;96.30;;;;;;5096326;28;19927;-74
2023/06/21 11:44:13;;;;;;;;;;;28.90;95.40;;;;;;5114145;28;19969;-78
2023/06/21 11:46:39;;;;;;;;;;;28.80;93.70;;;;;;5120079;28;19920;-78
2023/06/21 11:49:05;;;;;;;;;;;28.60;94.90;;;;;;5116278;28;19926;-79
2023/06/21 11:51:34;;;;;;;;;;;28.50;94.90;;;;;;5103126;28;19920;-77
2023/06/21 11:53:59;;;;;;;;;;;28.20;93.60;;;;;;5106594;28;19920;-77
2023/06/21 11:56:32;;;;;;;;;;;28.00;94.90;;;;;;5112490;28;19973;-78
2023/06/21 11:59:00;;;;;;;;;;;27.90;94.20;;;;;;5109575;28;19958;-79
2023/06/21 12:01:26;;;;;;;;;;;27.60;94.80;;;;;;5074328;28;20014;-78
2023/06/21 12:03:58;;;;;;;;;;;27.50;95.20;;;;;;5109542;28;19963;-76
2023/06/21 12:06:24;;;;;;;;;;;27.40;95.00;;;;;;5073886;28;19920;-78
2023/06/21 12:08:54;;;;;;;;;;;27.20;94.40;;;;;;5120680;27;19950;-80
2023/06/21 12:11:20;;;;;;;;;;;27.10;95.10;;;;;;5102716;27;19928;-79
2023/06/21 12:13:47;;;;;;;;;;;26.90;94.60;;;;;;5118029;28;19929;-79
2023/06/21 12:16:13;;;;;;;;;;;26.70;95.50;;;;;;5100861;28;19930;-76
2023/06/21 12:18:38;;;;;;;;;;;26.80;96.60;;;;;;5113858;27;20038;-77
2023/06/21 12:21:06;;;;;;;;;;;27.00;96.30;;;;;;5110073;28;19919;-78
2023/06/21 12:23:32;;;;;;;;;;;27.30;96.40;;;;;;5111246;28;19927;-78
2023/06/21 12:26:01;;;;;;;;;;;27.60;95.90;;;;;;5108455;28;19919;-78
2023/06/21 12:28:27;;;;;;;;;;;27.70;96.10;;;;;;5111013;28;19920;-77
2023/06/21 12:30:56;;;;;;;;;;;27.90;96.30;;;;;;5114245;27;19958;-77
2023/06/21 12:33:26;;;;;;;;;;;28.10;94.80;;;;;;5112423;27;19936;-78
2023/06/21 12:35:52;;;;;;;;;;;28.20;94.40;;;;;;5107216;27;19963;-77
2023/06/21 12:38:18;;;;;;;;;;;28.50;94.40;;;;;;5086168;28;19973;-79
2023/06/21 12:40:53;;;;;;;;;;;28.60;94.80;;;;;;5089439;28;19920;-79
2023/06/21 12:43:32;;;;;;;;;;;28.40;93.10;;;;;;5093872;27;20357;-78
2023/06/21 12:46:01;;;;;;;;;;;28.40;94.10;;;;;;5101776;27;19928;-78
2023/06/21 12:48:27;;;;;;;;;;;28.50;93.30;;;;;;5117021;27;19985;-78
2023/06/21 12:50:56;;;;;;;;;;;28.60;92.90;;;;;;5096783;28;20579;-77
2023/06/21 12:53:31;;;;;;;;;;;28.40;92.40;;;;;;5116477;27;19963;-77
2023/06/21 12:56:07;;;;;;;;;;;28.40;92.10;;;;;;5075491;27;19920;-77
2023/06/21 12:58:32;;;;;;;;;;;28.40;92.00;;;;;;5087500;27;19972;-78
2023/06/21 13:00:59;;;;;;;;;;;28.60;92.30;;;;;;5113704;28;19919;-77
2023/06/21 13:03:25;;;;;;;;;;;28.70;92.30;;;;;;5105172;28;19920;-76
2023/06/21 13:05:51;;;;;;;;;;;28.90;91.30;;;;;;5110218;27;19941;-78
2023/06/21 13:08:16;;;;;;;;;;;29.00;91.80;;;;;;5105540;28;19920;-79
2023/06/21 13:10:42;;;;;;;;;;;29.20;90.50;;;;;;5096983;28;20296;-78
2023/06/21 13:13:07;;;;;;;;;;;29.00;90.00;;;;;;5113458;28;20292;-77
2023/06/21 13:15:34;;;;;;;;;;;29.00;91.70;;;;;;5096914;28;19928;-78
2023/06/21 13:17:59;;;;;;;;;;;29.20;90.50;;;;;;5111339;28;20032;-76
2023/06/21 13:20:25;;;;;;;;;;;29.20;89.60;;;;;;5115288;28;20335;-78
2023/06/21 13:22:51;;;;;;;;;;;29.10;90.40;;;;;;5109378;28;19920;-80
2023/06/21 13:25:16;;;;;;;;;;;29.10;90.10;;;;;;5094278;28;19945;-76
2023/06/21 13:27:42;;;;;;;;;;;29.20;90.70;;;;;;5094507;28;20019;-78
2023/06/21 13:30:08;;;;;;;;;;;29.40;89.80;;;;;;5114614;28;19920;-77
2023/06/21 13:32:36;;;;;;;;;;;29.50;86.90;;;;;;5100018;28;19923;-79
2023/06/21 13:35:01;;;;;;;;;;;29.30;89.80;;;;;;5091787;28;20395;-78
2023/06/21 13:37:27;;;;;;;;;;;29.20;88.70;;;;;;5101714;28;20006;-78
2023/06/21 13:39:53;;;;;;;;;;;29.20;90.60;;;;;;5107958;28;19932;-77
2023/06/21 13:42:20;;;;;;;;;;;29.20;89.80;;;;;;5107840;28;19920;-78
2023/06/21 13:44:45;;;;;;;;;;;29.10;88.50;;;;;;5090521;28;19924;-78
2023/06/21 13:47:11;;;;;;;;;;;28.80;88.40;;;;;;5090820;28;19924;-77
2023/06/21 13:49:36;;;;;;;;;;;28.50;89.60;;;;;;5082124;28;19928;-78
2023/06/21 13:52:02;;;;;;;;;;;28.40;86.60;;;;;;5101490;28;20404;-79
2023/06/21 13:54:31;;;;;;;;;;;28.00;88.10;;;;;;5104161;28;19919;-78
2023/06/21 13:56:56;;;;;;;;;;;27.90;89.90;;;;;;5104949;28;19935;-78
2023/06/21 13:59:22;;;;;;;;;;;27.80;88.90;;;;;;5102268;28;20348;-78
2023/06/21 14:01:48;;;;;;;;;;;27.70;89.70;;;;;;5103683;27;19919;-77
2023/06/21 14:04:13;;;;;;;;;;;27.70;90.00;;;;;;5095890;28;20265;-79
2023/06/21 14:06:42;;;;;;;;;;;27.60;88.90;;;;;;5091440;28;19920;-79
2023/06/21 14:09:07;;;;;;;;;;;27.50;89.10;;;;;;5101364;28;19920;-79
2023/06/21 14:11:33;;;;;;;;;;;27.40;90.20;;;;;;5113312;27;19943;-76
2023/06/21 14:13:59;;;;;;;;;;;27.50;91.40;;;;;;5086998;28;20293;-78